sensor_id;sensor_type;location;lat;lon;timestamp;P1;durP1;ratioP1;P2;durP2;ratioP2
46290;SDS011;32023;44.444;26.006;2023-09-19T00:00:41;7.53;;;4.50;;
46290;SDS011;32023;44.444;26.006;2023-09-19T00:03:37;8.30;;;4.70;;
46290;SDS011;32023;44.444;26.006;2023-09-19T00:06:04;8.23;;;4.63;;
46290;SDS011;32023;44.444;26.006;2023-09-19T00:08:34;7.13;;;4.65;;
46290;SDS011;32023;44.444;26.006;2023-09-19T00:11:08;9.27;;;5.63;;
46290;SDS011;32023;44.444;26.006;2023-09-19T00:16:23;11.25;;;4.88;;
46290;SDS011;32023;44.444;26.006;2023-09-19T00:18:52;9.50;;;5.30;;
46290;SDS011;32023;44.444;26.006;2023-09-19T00:21:18;6.85;;;5.00;;
46290;SDS011;32023;44.444;26.006;2023-09-19T00:23:47;8.95;;;5.10;;
46290;SDS011;32023;44.444;26.006;2023-09-19T00:26:17;5.93;;;4.68;;
46290;SDS011;32023;44.444;26.006;2023-09-19T00:28:43;8.10;;;5.05;;
46290;SDS011;32023;44.444;26.006;2023-09-19T00:31:12;11.20;;;5.03;;
46290;SDS011;32023;44.444;26.006;2023-09-19T00:33:39;13.07;;;5.45;;
46290;SDS011;32023;44.444;26.006;2023-09-19T00:36:05;11.00;;;4.80;;
46290;SDS011;32023;44.444;26.006;2023-09-19T00:41:19;9.63;;;5.13;;
46290;SDS011;32023;44.444;26.006;2023-09-19T00:43:50;8.65;;;6.22;;
46290;SDS011;32023;44.444;26.006;2023-09-19T00:46:16;10.05;;;5.90;;
46290;SDS011;32023;44.444;26.006;2023-09-19T00:48:46;9.60;;;5.82;;
46290;SDS011;32023;44.444;26.006;2023-09-19T00:51:15;8.20;;;6.40;;
46290;SDS011;32023;44.444;26.006;2023-09-19T00:53:46;8.88;;;6.13;;
46290;SDS011;32023;44.444;26.006;2023-09-19T00:56:20;13.43;;;6.78;;
46290;SDS011;32023;44.444;26.006;2023-09-19T00:59:07;9.75;;;6.03;;
46290;SDS011;32023;44.444;26.006;2023-09-19T01:01:37;10.02;;;6.18;;
46290;SDS011;32023;44.444;26.006;2023-09-19T01:04:18;9.38;;;6.10;;
46290;SDS011;32023;44.444;26.006;2023-09-19T01:06:45;10.98;;;7.05;;
46290;SDS011;32023;44.444;26.006;2023-09-19T01:09:27;11.82;;;5.90;;
46290;SDS011;32023;44.444;26.006;2023-09-19T01:12:01;8.57;;;6.43;;
46290;SDS011;32023;44.444;26.006;2023-09-19T01:14:37;11.68;;;6.20;;
46290;SDS011;32023;44.444;26.006;2023-09-19T01:17:34;11.82;;;6.15;;
46290;SDS011;32023;44.444;26.006;2023-09-19T01:20:39;8.93;;;6.22;;
46290;SDS011;32023;44.444;26.006;2023-09-19T01:29:49;12.43;;;7.22;;
46290;SDS011;32023;44.444;26.006;2023-09-19T01:32:19;12.43;;;6.50;;
46290;SDS011;32023;44.444;26.006;2023-09-19T01:34:58;11.02;;;6.82;;
46290;SDS011;32023;44.444;26.006;2023-09-19T01:40:03;13.02;;;6.70;;
46290;SDS011;32023;44.444;26.006;2023-09-19T01:46:19;16.50;;;7.70;;
46290;SDS011;32023;44.444;26.006;2023-09-19T01:51:53;13.23;;;6.72;;
46290;SDS011;32023;44.444;26.006;2023-09-19T01:54:55;11.70;;;6.47;;
46290;SDS011;32023;44.444;26.006;2023-09-19T01:58:16;15.85;;;7.78;;
46290;SDS011;32023;44.444;26.006;2023-09-19T02:00:41;19.13;;;7.93;;
46290;SDS011;32023;44.444;26.006;2023-09-19T02:03:09;11.35;;;7.22;;
46290;SDS011;32023;44.444;26.006;2023-09-19T02:05:40;11.68;;;7.15;;
46290;SDS011;32023;44.444;26.006;2023-09-19T02:08:06;16.42;;;7.10;;
46290;SDS011;32023;44.444;26.006;2023-09-19T02:10:35;14.02;;;7.75;;
46290;SDS011;32023;44.444;26.006;2023-09-19T02:13:01;14.27;;;7.95;;
46290;SDS011;32023;44.444;26.006;2023-09-19T02:15:37;13.63;;;7.45;;
46290;SDS011;32023;44.444;26.006;2023-09-19T02:18:03;13.18;;;7.82;;
46290;SDS011;32023;44.444;26.006;2023-09-19T02:20:30;13.93;;;7.32;;
46290;SDS011;32023;44.444;26.006;2023-09-19T02:22:58;27.35;;;7.82;;
46290;SDS011;32023;44.444;26.006;2023-09-19T02:25:24;15.57;;;6.88;;
46290;SDS011;32023;44.444;26.006;2023-09-19T02:27:53;13.80;;;6.95;;
46290;SDS011;32023;44.444;26.006;2023-09-19T02:30:22;15.45;;;6.60;;
46290;SDS011;32023;44.444;26.006;2023-09-19T02:32:56;16.48;;;6.78;;
46290;SDS011;32023;44.444;26.006;2023-09-19T02:35:26;16.10;;;7.55;;
46290;SDS011;32023;44.444;26.006;2023-09-19T02:37:56;12.80;;;6.72;;
46290;SDS011;32023;44.444;26.006;2023-09-19T02:40:25;13.73;;;7.18;;
46290;SDS011;32023;44.444;26.006;2023-09-19T02:42:54;20.60;;;6.95;;
46290;SDS011;32023;44.444;26.006;2023-09-19T02:47:56;14.57;;;7.18;;
46290;SDS011;32023;44.444;26.006;2023-09-19T02:50:25;16.10;;;7.65;;
46290;SDS011;32023;44.444;26.006;2023-09-19T02:52:51;23.98;;;7.43;;
46290;SDS011;32023;44.444;26.006;2023-09-19T02:55:18;21.63;;;8.20;;
46290;SDS011;32023;44.444;26.006;2023-09-19T02:57:54;11.13;;;8.10;;
46290;SDS011;32023;44.444;26.006;2023-09-19T03:00:25;19.40;;;8.60;;
46290;SDS011;32023;44.444;26.006;2023-09-19T03:02:55;17.05;;;8.43;;
46290;SDS011;32023;44.444;26.006;2023-09-19T03:05:22;11.02;;;8.00;;
46290;SDS011;32023;44.444;26.006;2023-09-19T03:07:58;17.98;;;8.43;;
46290;SDS011;32023;44.444;26.006;2023-09-19T03:10:27;17.33;;;7.85;;
46290;SDS011;32023;44.444;26.006;2023-09-19T03:12:56;13.20;;;8.45;;
46290;SDS011;32023;44.444;26.006;2023-09-19T03:31:56;14.13;;;8.15;;
46290;SDS011;32023;44.444;26.006;2023-09-19T03:34:35;15.88;;;7.75;;
46290;SDS011;32023;44.444;26.006;2023-09-19T03:37:14;14.68;;;8.45;;
46290;SDS011;32023;44.444;26.006;2023-09-19T03:39:46;16.10;;;9.18;;
46290;SDS011;32023;44.444;26.006;2023-09-19T03:42:15;13.30;;;8.70;;
46290;SDS011;32023;44.444;26.006;2023-09-19T03:44:42;19.10;;;8.63;;
46290;SDS011;32023;44.444;26.006;2023-09-19T03:47:10;23.60;;;8.43;;
46290;SDS011;32023;44.444;26.006;2023-09-19T03:49:37;15.23;;;8.65;;
46290;SDS011;32023;44.444;26.006;2023-09-19T03:52:03;21.08;;;9.18;;
46290;SDS011;32023;44.444;26.006;2023-09-19T03:54:40;15.77;;;8.38;;
46290;SDS011;32023;44.444;26.006;2023-09-19T03:57:32;15.13;;;8.40;;
46290;SDS011;32023;44.444;26.006;2023-09-19T04:00:25;18.65;;;8.63;;
46290;SDS011;32023;44.444;26.006;2023-09-19T04:05:31;25.40;;;9.68;;
46290;SDS011;32023;44.444;26.006;2023-09-19T04:08:03;21.45;;;8.75;;
46290;SDS011;32023;44.444;26.006;2023-09-19T04:10:32;19.60;;;9.65;;
46290;SDS011;32023;44.444;26.006;2023-09-19T04:13:01;14.70;;;8.80;;
46290;SDS011;32023;44.444;26.006;2023-09-19T04:15:32;15.80;;;8.90;;
46290;SDS011;32023;44.444;26.006;2023-09-19T04:18:13;18.33;;;9.07;;
46290;SDS011;32023;44.444;26.006;2023-09-19T04:21:17;13.45;;;9.40;;
46290;SDS011;32023;44.444;26.006;2023-09-19T04:23:56;17.98;;;9.48;;
46290;SDS011;32023;44.444;26.006;2023-09-19T04:29:39;26.75;;;10.45;;
46290;SDS011;32023;44.444;26.006;2023-09-19T04:32:46;18.90;;;9.73;;
46290;SDS011;32023;44.444;26.006;2023-09-19T04:48:20;10.63;;;9.10;;
46290;SDS011;32023;44.444;26.006;2023-09-19T04:54:09;15.20;;;9.52;;
46290;SDS011;32023;44.444;26.006;2023-09-19T04:56:46;25.30;;;9.55;;
46290;SDS011;32023;44.444;26.006;2023-09-19T04:59:17;24.27;;;8.45;;
46290;SDS011;32023;44.444;26.006;2023-09-19T05:01:43;22.40;;;9.25;;
46290;SDS011;32023;44.444;26.006;2023-09-19T05:04:18;19.35;;;8.30;;
46290;SDS011;32023;44.444;26.006;2023-09-19T05:06:51;28.58;;;8.77;;
46290;SDS011;32023;44.444;26.006;2023-09-19T05:09:24;26.42;;;9.27;;
46290;SDS011;32023;44.444;26.006;2023-09-19T05:12:04;24.42;;;8.50;;
46290;SDS011;32023;44.444;26.006;2023-09-19T05:21:32;15.98;;;8.70;;
46290;SDS011;32023;44.444;26.006;2023-09-19T05:24:09;21.00;;;7.63;;
46290;SDS011;32023;44.444;26.006;2023-09-19T05:27:00;13.05;;;8.10;;
46290;SDS011;32023;44.444;26.006;2023-09-19T05:36:42;14.65;;;7.35;;
46290;SDS011;32023;44.444;26.006;2023-09-19T05:45:31;11.38;;;6.35;;
46290;SDS011;32023;44.444;26.006;2023-09-19T05:48:35;13.05;;;6.85;;
46290;SDS011;32023;44.444;26.006;2023-09-19T05:51:04;16.02;;;6.20;;
46290;SDS011;32023;44.444;26.006;2023-09-19T05:54:02;10.52;;;6.55;;
46290;SDS011;32023;44.444;26.006;2023-09-19T05:56:36;11.57;;;6.28;;
46290;SDS011;32023;44.444;26.006;2023-09-19T05:59:06;15.80;;;6.65;;
46290;SDS011;32023;44.444;26.006;2023-09-19T06:08:25;10.40;;;5.85;;
46290;SDS011;32023;44.444;26.006;2023-09-19T06:11:11;16.25;;;7.05;;
46290;SDS011;32023;44.444;26.006;2023-09-19T06:13:37;13.35;;;6.30;;
46290;SDS011;32023;44.444;26.006;2023-09-19T06:22:40;6.82;;;5.32;;
46290;SDS011;32023;44.444;26.006;2023-09-19T06:25:30;10.60;;;4.75;;
46290;SDS011;32023;44.444;26.006;2023-09-19T06:28:08;10.05;;;4.88;;
46290;SDS011;32023;44.444;26.006;2023-09-19T06:30:53;10.23;;;5.28;;
46290;SDS011;32023;44.444;26.006;2023-09-19T06:33:22;9.50;;;4.95;;
46290;SDS011;32023;44.444;26.006;2023-09-19T06:35:55;5.22;;;4.10;;
46290;SDS011;32023;44.444;26.006;2023-09-19T06:38:32;12.15;;;4.65;;
46290;SDS011;32023;44.444;26.006;2023-09-19T06:41:12;8.43;;;3.97;;
46290;SDS011;32023;44.444;26.006;2023-09-19T06:44:14;6.07;;;3.75;;
46290;SDS011;32023;44.444;26.006;2023-09-19T06:46:57;9.75;;;3.78;;
46290;SDS011;32023;44.444;26.006;2023-09-19T06:49:36;10.48;;;5.13;;
46290;SDS011;32023;44.444;26.006;2023-09-19T06:55:36;5.10;;;3.88;;
46290;SDS011;32023;44.444;26.006;2023-09-19T06:58:27;5.30;;;3.00;;
46290;SDS011;32023;44.444;26.006;2023-09-19T07:01:27;12.40;;;4.47;;
46290;SDS011;32023;44.444;26.006;2023-09-19T07:04:03;5.90;;;3.78;;
46290;SDS011;32023;44.444;26.006;2023-09-19T07:09:18;5.93;;;4.22;;
46290;SDS011;32023;44.444;26.006;2023-09-19T07:11:56;9.13;;;3.38;;
46290;SDS011;32023;44.444;26.006;2023-09-19T07:14:23;14.80;;;3.90;;
46290;SDS011;32023;44.444;26.006;2023-09-19T07:16:52;5.82;;;3.60;;
46290;SDS011;32023;44.444;26.006;2023-09-19T07:19:37;8.02;;;3.92;;
46290;SDS011;32023;44.444;26.006;2023-09-19T07:22:08;9.10;;;3.72;;
46290;SDS011;32023;44.444;26.006;2023-09-19T07:24:35;11.00;;;3.92;;
46290;SDS011;32023;44.444;26.006;2023-09-19T07:27:04;10.73;;;4.18;;
46290;SDS011;32023;44.444;26.006;2023-09-19T07:29:34;10.13;;;3.28;;
46290;SDS011;32023;44.444;26.006;2023-09-19T07:32:10;6.00;;;3.80;;
46290;SDS011;32023;44.444;26.006;2023-09-19T07:34:50;8.93;;;3.33;;
46290;SDS011;32023;44.444;26.006;2023-09-19T07:37:17;7.75;;;3.40;;
46290;SDS011;32023;44.444;26.006;2023-09-19T07:39:43;5.68;;;3.70;;
46290;SDS011;32023;44.444;26.006;2023-09-19T07:42:17;7.05;;;3.33;;
46290;SDS011;32023;44.444;26.006;2023-09-19T07:44:48;10.52;;;3.85;;
46290;SDS011;32023;44.444;26.006;2023-09-19T07:47:16;11.07;;;4.07;;
46290;SDS011;32023;44.444;26.006;2023-09-19T07:49:46;8.02;;;4.25;;
46290;SDS011;32023;44.444;26.006;2023-09-19T07:52:20;7.45;;;3.47;;
46290;SDS011;32023;44.444;26.006;2023-09-19T07:54:49;5.32;;;3.28;;
46290;SDS011;32023;44.444;26.006;2023-09-19T07:57:15;11.35;;;3.25;;
46290;SDS011;32023;44.444;26.006;2023-09-19T07:59:45;10.52;;;3.70;;
46290;SDS011;32023;44.444;26.006;2023-09-19T08:02:26;6.85;;;3.17;;
46290;SDS011;32023;44.444;26.006;2023-09-19T08:04:56;8.90;;;3.97;;
46290;SDS011;32023;44.444;26.006;2023-09-19T08:07:25;6.10;;;2.83;;
46290;SDS011;32023;44.444;26.006;2023-09-19T08:09:59;3.72;;;2.80;;
46290;SDS011;32023;44.444;26.006;2023-09-19T08:12:32;7.40;;;2.92;;
46290;SDS011;32023;44.444;26.006;2023-09-19T08:15:03;7.85;;;3.28;;
46290;SDS011;32023;44.444;26.006;2023-09-19T08:17:36;5.60;;;3.23;;
46290;SDS011;32023;44.444;26.006;2023-09-19T08:20:02;4.25;;;2.50;;
46290;SDS011;32023;44.444;26.006;2023-09-19T08:22:31;8.50;;;3.03;;
46290;SDS011;32023;44.444;26.006;2023-09-19T08:25:13;9.23;;;2.67;;
46290;SDS011;32023;44.444;26.006;2023-09-19T08:27:46;7.65;;;3.08;;
46290;SDS011;32023;44.444;26.006;2023-09-19T08:30:16;5.45;;;2.67;;
46290;SDS011;32023;44.444;26.006;2023-09-19T08:32:48;4.95;;;2.72;;
46290;SDS011;32023;44.444;26.006;2023-09-19T08:35:23;11.57;;;2.45;;
46290;SDS011;32023;44.444;26.006;2023-09-19T08:37:50;5.70;;;2.75;;
46290;SDS011;32023;44.444;26.006;2023-09-19T08:40:18;5.55;;;2.80;;
46290;SDS011;32023;44.444;26.006;2023-09-19T08:43:04;8.20;;;3.22;;
46290;SDS011;32023;44.444;26.006;2023-09-19T08:45:33;5.80;;;2.72;;
46290;SDS011;32023;44.444;26.006;2023-09-19T08:51:03;5.97;;;2.83;;
46290;SDS011;32023;44.444;26.006;2023-09-19T08:56:25;5.35;;;2.70;;
46290;SDS011;32023;44.444;26.006;2023-09-19T08:58:56;4.28;;;2.80;;
46290;SDS011;32023;44.444;26.006;2023-09-19T09:01:41;7.75;;;2.60;;
46290;SDS011;32023;44.444;26.006;2023-09-19T09:04:11;5.65;;;2.78;;
46290;SDS011;32023;44.444;26.006;2023-09-19T09:06:38;13.43;;;3.30;;
46290;SDS011;32023;44.444;26.006;2023-09-19T09:09:08;9.77;;;2.85;;
46290;SDS011;32023;44.444;26.006;2023-09-19T09:11:41;9.52;;;2.83;;
46290;SDS011;32023;44.444;26.006;2023-09-19T09:14:07;6.20;;;3.00;;
46290;SDS011;32023;44.444;26.006;2023-09-19T09:16:43;4.85;;;2.28;;
46290;SDS011;32023;44.444;26.006;2023-09-19T09:19:18;7.60;;;2.15;;
46290;SDS011;32023;44.444;26.006;2023-09-19T09:21:49;4.28;;;2.35;;
46290;SDS011;32023;44.444;26.006;2023-09-19T09:24:30;3.88;;;2.50;;
46290;SDS011;32023;44.444;26.006;2023-09-19T09:27:03;6.90;;;2.30;;
46290;SDS011;32023;44.444;26.006;2023-09-19T09:29:54;4.40;;;2.40;;
46290;SDS011;32023;44.444;26.006;2023-09-19T09:32:27;5.32;;;2.60;;
46290;SDS011;32023;44.444;26.006;2023-09-19T09:34:59;4.90;;;2.90;;
46290;SDS011;32023;44.444;26.006;2023-09-19T09:37:46;3.80;;;2.80;;
46290;SDS011;32023;44.444;26.006;2023-09-19T09:43:51;4.15;;;2.50;;
46290;SDS011;32023;44.444;26.006;2023-09-19T09:46:23;4.78;;;3.05;;
46290;SDS011;32023;44.444;26.006;2023-09-19T09:49:11;5.40;;;2.90;;
46290;SDS011;32023;44.444;26.006;2023-09-19T09:52:03;4.68;;;2.95;;
46290;SDS011;32023;44.444;26.006;2023-09-19T09:55:00;4.72;;;2.47;;
46290;SDS011;32023;44.444;26.006;2023-09-19T09:57:36;7.55;;;2.35;;
46290;SDS011;32023;44.444;26.006;2023-09-19T10:00:06;5.20;;;2.63;;
46290;SDS011;32023;44.444;26.006;2023-09-19T10:02:37;3.25;;;2.35;;
46290;SDS011;32023;44.444;26.006;2023-09-19T10:05:19;7.88;;;2.80;;
46290;SDS011;32023;44.444;26.006;2023-09-19T10:08:10;6.15;;;2.33;;
46290;SDS011;32023;44.444;26.006;2023-09-19T10:10:44;7.70;;;2.92;;
46290;SDS011;32023;44.444;26.006;2023-09-19T10:13:21;4.07;;;2.63;;
46290;SDS011;32023;44.444;26.006;2023-09-19T10:15:58;4.82;;;3.05;;
46290;SDS011;32023;44.444;26.006;2023-09-19T10:18:32;6.45;;;2.92;;
46290;SDS011;32023;44.444;26.006;2023-09-19T10:21:05;6.88;;;2.20;;
46290;SDS011;32023;44.444;26.006;2023-09-19T10:23:39;6.07;;;2.20;;
46290;SDS011;32023;44.444;26.006;2023-09-19T10:26:10;7.47;;;2.60;;
46290;SDS011;32023;44.444;26.006;2023-09-19T10:28:43;5.63;;;2.50;;
46290;SDS011;32023;44.444;26.006;2023-09-19T10:31:14;5.20;;;2.00;;
46290;SDS011;32023;44.444;26.006;2023-09-19T10:33:49;7.78;;;2.08;;
46290;SDS011;32023;44.444;26.006;2023-09-19T10:36:16;5.60;;;2.35;;
46290;SDS011;32023;44.444;26.006;2023-09-19T10:39:06;3.83;;;2.33;;
46290;SDS011;32023;44.444;26.006;2023-09-19T10:41:39;6.45;;;1.95;;
46290;SDS011;32023;44.444;26.006;2023-09-19T10:44:28;4.60;;;2.17;;
46290;SDS011;32023;44.444;26.006;2023-09-19T10:47:05;8.13;;;2.30;;
46290;SDS011;32023;44.444;26.006;2023-09-19T10:52:20;6.85;;;2.22;;
46290;SDS011;32023;44.444;26.006;2023-09-19T10:54:50;2.13;;;1.83;;
46290;SDS011;32023;44.444;26.006;2023-09-19T10:57:28;6.15;;;2.83;;
46290;SDS011;32023;44.444;26.006;2023-09-19T11:00:02;5.07;;;2.00;;
46290;SDS011;32023;44.444;26.006;2023-09-19T11:06:03;3.55;;;1.90;;
46290;SDS011;32023;44.444;26.006;2023-09-19T11:12:00;5.00;;;2.15;;
46290;SDS011;32023;44.444;26.006;2023-09-19T11:14:37;9.98;;;2.22;;
46290;SDS011;32023;44.444;26.006;2023-09-19T11:36:35;5.68;;;2.40;;
46290;SDS011;32023;44.444;26.006;2023-09-19T11:39:09;4.28;;;1.70;;
46290;SDS011;32023;44.444;26.006;2023-09-19T11:41:56;3.60;;;1.90;;
46290;SDS011;32023;44.444;26.006;2023-09-19T11:44:46;2.30;;;1.90;;
46290;SDS011;32023;44.444;26.006;2023-09-19T11:47:20;5.68;;;1.80;;
46290;SDS011;32023;44.444;26.006;2023-09-19T11:49:49;8.15;;;1.85;;
46290;SDS011;32023;44.444;26.006;2023-09-19T11:52:24;6.70;;;2.30;;
46290;SDS011;32023;44.444;26.006;2023-09-19T11:55:04;11.18;;;2.05;;
46290;SDS011;32023;44.444;26.006;2023-09-19T11:57:30;5.85;;;2.10;;
46290;SDS011;32023;44.444;26.006;2023-09-19T12:00:00;6.13;;;2.50;;
46290;SDS011;32023;44.444;26.006;2023-09-19T12:02:42;7.47;;;2.22;;
46290;SDS011;32023;44.444;26.006;2023-09-19T12:05:28;3.70;;;2.30;;
46290;SDS011;32023;44.444;26.006;2023-09-19T12:07:55;4.25;;;2.15;;
46290;SDS011;32023;44.444;26.006;2023-09-19T12:10:27;4.72;;;2.10;;
46290;SDS011;32023;44.444;26.006;2023-09-19T12:12:58;8.02;;;2.15;;
46290;SDS011;32023;44.444;26.006;2023-09-19T12:15:28;5.38;;;2.17;;
46290;SDS011;32023;44.444;26.006;2023-09-19T12:18:25;6.45;;;2.20;;
46290;SDS011;32023;44.444;26.006;2023-09-19T12:20:52;5.43;;;2.22;;
46290;SDS011;32023;44.444;26.006;2023-09-19T12:23:31;5.80;;;1.98;;
46290;SDS011;32023;44.444;26.006;2023-09-19T12:26:02;5.43;;;2.10;;
46290;SDS011;32023;44.444;26.006;2023-09-19T12:28:40;9.10;;;2.35;;
46290;SDS011;32023;44.444;26.006;2023-09-19T12:31:08;4.70;;;2.08;;
46290;SDS011;32023;44.444;26.006;2023-09-19T12:41:34;6.45;;;2.20;;
46290;SDS011;32023;44.444;26.006;2023-09-19T12:44:05;6.60;;;2.15;;
46290;SDS011;32023;44.444;26.006;2023-09-19T12:46:36;3.55;;;2.25;;
46290;SDS011;32023;44.444;26.006;2023-09-19T12:49:17;3.17;;;2.42;;
46290;SDS011;32023;44.444;26.006;2023-09-19T12:51:47;4.63;;;2.10;;
46290;SDS011;32023;44.444;26.006;2023-09-19T12:54:14;4.55;;;2.10;;
46290;SDS011;32023;44.444;26.006;2023-09-19T12:56:43;3.95;;;2.25;;
46290;SDS011;32023;44.444;26.006;2023-09-19T12:59:11;7.00;;;2.42;;
46290;SDS011;32023;44.444;26.006;2023-09-19T13:01:39;4.45;;;2.33;;
46290;SDS011;32023;44.444;26.006;2023-09-19T13:06:47;6.65;;;2.17;;
46290;SDS011;32023;44.444;26.006;2023-09-19T13:09:18;3.25;;;2.10;;
46290;SDS011;32023;44.444;26.006;2023-09-19T13:11:46;5.82;;;2.15;;
46290;SDS011;32023;44.444;26.006;2023-09-19T13:14:22;5.15;;;2.65;;
46290;SDS011;32023;44.444;26.006;2023-09-19T13:19:45;3.22;;;2.20;;
46290;SDS011;32023;44.444;26.006;2023-09-19T13:25:26;4.80;;;2.42;;
46290;SDS011;32023;44.444;26.006;2023-09-19T13:27:58;4.03;;;1.90;;
46290;SDS011;32023;44.444;26.006;2023-09-19T13:30:26;8.20;;;2.55;;
46290;SDS011;32023;44.444;26.006;2023-09-19T13:33:08;10.30;;;2.50;;
46290;SDS011;32023;44.444;26.006;2023-09-19T13:35:46;5.22;;;2.40;;
46290;SDS011;32023;44.444;26.006;2023-09-19T13:38:25;7.50;;;2.40;;
46290;SDS011;32023;44.444;26.006;2023-09-19T13:40:56;5.97;;;2.75;;
46290;SDS011;32023;44.444;26.006;2023-09-19T13:43:44;8.68;;;2.42;;
46290;SDS011;32023;44.444;26.006;2023-09-19T13:46:14;5.80;;;2.30;;
46290;SDS011;32023;44.444;26.006;2023-09-19T13:49:06;13.95;;;2.90;;
46290;SDS011;32023;44.444;26.006;2023-09-19T13:55:38;6.97;;;2.38;;
46290;SDS011;32023;44.444;26.006;2023-09-19T14:01:08;8.50;;;2.45;;
46290;SDS011;32023;44.444;26.006;2023-09-19T14:03:43;8.10;;;2.40;;
46290;SDS011;32023;44.444;26.006;2023-09-19T14:15:08;7.50;;;2.60;;
46290;SDS011;32023;44.444;26.006;2023-09-19T14:17:35;5.00;;;2.15;;
46290;SDS011;32023;44.444;26.006;2023-09-19T14:20:22;9.02;;;2.90;;
46290;SDS011;32023;44.444;26.006;2023-09-19T14:22:58;30.88;;;2.95;;
46290;SDS011;32023;44.444;26.006;2023-09-19T14:25:27;8.98;;;2.53;;
46290;SDS011;32023;44.444;26.006;2023-09-19T14:27:56;11.07;;;3.35;;
46290;SDS011;32023;44.444;26.006;2023-09-19T14:30:28;9.43;;;2.80;;
46290;SDS011;32023;44.444;26.006;2023-09-19T14:33:08;8.15;;;2.65;;
46290;SDS011;32023;44.444;26.006;2023-09-19T14:35:51;10.05;;;2.60;;
46290;SDS011;32023;44.444;26.006;2023-09-19T14:38:21;6.25;;;2.55;;
46290;SDS011;32023;44.444;26.006;2023-09-19T14:41:02;7.95;;;2.80;;
46290;SDS011;32023;44.444;26.006;2023-09-19T14:43:32;6.65;;;2.67;;
46290;SDS011;32023;44.444;26.006;2023-09-19T14:46:05;8.00;;;2.88;;
46290;SDS011;32023;44.444;26.006;2023-09-19T14:48:43;5.68;;;2.80;;
46290;SDS011;32023;44.444;26.006;2023-09-19T14:51:12;7.07;;;3.10;;
46290;SDS011;32023;44.444;26.006;2023-09-19T14:53:56;9.50;;;3.00;;
46290;SDS011;32023;44.444;26.006;2023-09-19T14:56:29;6.43;;;2.83;;
46290;SDS011;32023;44.444;26.006;2023-09-19T14:58:58;4.85;;;2.78;;
46290;SDS011;32023;44.444;26.006;2023-09-19T15:04:51;6.47;;;3.10;;
46290;SDS011;32023;44.444;26.006;2023-09-19T15:07:20;8.90;;;2.92;;
46290;SDS011;32023;44.444;26.006;2023-09-19T15:10:03;9.43;;;2.80;;
46290;SDS011;32023;44.444;26.006;2023-09-19T15:12:53;5.32;;;3.03;;
46290;SDS011;32023;44.444;26.006;2023-09-19T15:15:41;10.02;;;3.53;;
46290;SDS011;32023;44.444;26.006;2023-09-19T15:18:17;12.98;;;3.80;;
46290;SDS011;32023;44.444;26.006;2023-09-19T15:20:56;13.10;;;3.70;;
46290;SDS011;32023;44.444;26.006;2023-09-19T15:23:34;17.67;;;3.97;;
46290;SDS011;32023;44.444;26.006;2023-09-19T15:26:24;13.23;;;3.85;;
46290;SDS011;32023;44.444;26.006;2023-09-19T15:29:02;10.27;;;3.90;;
46290;SDS011;32023;44.444;26.006;2023-09-19T15:31:41;12.32;;;3.78;;
46290;SDS011;32023;44.444;26.006;2023-09-19T15:34:24;16.70;;;4.47;;
46290;SDS011;32023;44.444;26.006;2023-09-19T15:36:54;10.85;;;4.10;;
46290;SDS011;32023;44.444;26.006;2023-09-19T15:39:23;7.28;;;4.13;;
46290;SDS011;32023;44.444;26.006;2023-09-19T15:45:40;22.20;;;10.43;;
46290;SDS011;32023;44.444;26.006;2023-09-19T15:48:21;18.92;;;10.43;;
46290;SDS011;32023;44.444;26.006;2023-09-19T15:54:38;12.18;;;5.05;;
46290;SDS011;32023;44.444;26.006;2023-09-19T15:58:15;17.20;;;5.43;;
46290;SDS011;32023;44.444;26.006;2023-09-19T16:01:27;8.90;;;4.25;;
46290;SDS011;32023;44.444;26.006;2023-09-19T16:10:59;12.57;;;4.30;;
46290;SDS011;32023;44.444;26.006;2023-09-19T16:24:13;16.95;;;4.55;;
46290;SDS011;32023;44.444;26.006;2023-09-19T16:30:46;9.30;;;3.63;;
46290;SDS011;32023;44.444;26.006;2023-09-19T16:33:44;16.55;;;3.83;;
46290;SDS011;32023;44.444;26.006;2023-09-19T16:36:15;16.60;;;4.28;;
46290;SDS011;32023;44.444;26.006;2023-09-19T16:42:21;13.50;;;3.90;;
46290;SDS011;32023;44.444;26.006;2023-09-19T16:44:50;10.57;;;3.67;;
46290;SDS011;32023;44.444;26.006;2023-09-19T16:47:17;15.98;;;4.43;;
46290;SDS011;32023;44.444;26.006;2023-09-19T16:50:04;10.40;;;4.40;;
46290;SDS011;32023;44.444;26.006;2023-09-19T16:52:34;11.68;;;4.72;;
46290;SDS011;32023;44.444;26.006;2023-09-19T16:55:06;14.02;;;5.03;;
46290;SDS011;32023;44.444;26.006;2023-09-19T16:57:49;11.70;;;4.28;;
46290;SDS011;32023;44.444;26.006;2023-09-19T17:00:40;25.83;;;5.78;;
46290;SDS011;32023;44.444;26.006;2023-09-19T17:03:26;17.42;;;4.63;;
46290;SDS011;32023;44.444;26.006;2023-09-19T17:06:14;15.18;;;5.05;;
46290;SDS011;32023;44.444;26.006;2023-09-19T17:12:23;11.07;;;5.32;;
46290;SDS011;32023;44.444;26.006;2023-09-19T17:15:02;25.35;;;5.88;;
46290;SDS011;32023;44.444;26.006;2023-09-19T17:21:19;10.43;;;5.15;;
46290;SDS011;32023;44.444;26.006;2023-09-19T17:23:56;14.70;;;5.80;;
46290;SDS011;32023;44.444;26.006;2023-09-19T17:26:32;15.35;;;5.32;;
46290;SDS011;32023;44.444;26.006;2023-09-19T17:29:04;9.90;;;5.03;;
46290;SDS011;32023;44.444;26.006;2023-09-19T17:31:38;20.33;;;5.20;;
46290;SDS011;32023;44.444;26.006;2023-09-19T17:34:16;22.60;;;6.20;;
46290;SDS011;32023;44.444;26.006;2023-09-19T17:36:52;10.85;;;5.43;;
46290;SDS011;32023;44.444;26.006;2023-09-19T17:39:25;27.50;;;6.50;;
46290;SDS011;32023;44.444;26.006;2023-09-19T17:42:18;15.00;;;5.50;;
46290;SDS011;32023;44.444;26.006;2023-09-19T17:45:27;14.65;;;5.90;;
46290;SDS011;32023;44.444;26.006;2023-09-19T17:48:01;16.17;;;5.75;;
46290;SDS011;32023;44.444;26.006;2023-09-19T17:50:38;19.58;;;6.47;;
46290;SDS011;32023;44.444;26.006;2023-09-19T17:53:20;18.60;;;6.03;;
46290;SDS011;32023;44.444;26.006;2023-09-19T17:55:56;19.77;;;5.85;;
46290;SDS011;32023;44.444;26.006;2023-09-19T17:58:24;15.65;;;5.63;;
46290;SDS011;32023;44.444;26.006;2023-09-19T18:01:03;20.00;;;5.97;;
46290;SDS011;32023;44.444;26.006;2023-09-19T18:03:46;14.77;;;5.93;;
46290;SDS011;32023;44.444;26.006;2023-09-19T18:06:21;9.30;;;5.30;;
46290;SDS011;32023;44.444;26.006;2023-09-19T18:08:51;14.93;;;6.60;;
46290;SDS011;32023;44.444;26.006;2023-09-19T18:11:20;13.93;;;6.50;;
46290;SDS011;32023;44.444;26.006;2023-09-19T18:13:50;9.85;;;5.93;;
46290;SDS011;32023;44.444;26.006;2023-09-19T18:16:19;12.60;;;6.35;;
46290;SDS011;32023;44.444;26.006;2023-09-19T18:18:48;9.98;;;6.38;;
46290;SDS011;32023;44.444;26.006;2023-09-19T18:21:17;17.02;;;6.70;;
46290;SDS011;32023;44.444;26.006;2023-09-19T18:23:58;11.93;;;6.55;;
46290;SDS011;32023;44.444;26.006;2023-09-19T18:26:50;10.88;;;6.20;;
46290;SDS011;32023;44.444;26.006;2023-09-19T18:29:23;12.60;;;6.95;;
46290;SDS011;32023;44.444;26.006;2023-09-19T18:35:14;13.77;;;7.30;;
46290;SDS011;32023;44.444;26.006;2023-09-19T18:37:54;11.15;;;6.57;;
46290;SDS011;32023;44.444;26.006;2023-09-19T18:44:14;15.48;;;7.22;;
46290;SDS011;32023;44.444;26.006;2023-09-19T18:46:44;13.70;;;7.70;;
46290;SDS011;32023;44.444;26.006;2023-09-19T18:52:23;11.48;;;7.57;;
46290;SDS011;32023;44.444;26.006;2023-09-19T19:02:00;18.20;;;8.13;;
46290;SDS011;32023;44.444;26.006;2023-09-19T19:04:47;16.80;;;7.75;;
46290;SDS011;32023;44.444;26.006;2023-09-19T19:07:19;13.85;;;7.85;;
46290;SDS011;32023;44.444;26.006;2023-09-19T19:09:50;16.17;;;8.60;;